createdAt,value
2023-05-12T00:02:16.432Z,100603.03
2023-05-12T00:04:43.090Z,100602.16
2023-05-12T00:07:09.695Z,100600.38
2023-05-12T00:09:36.266Z,100603.94
2023-05-12T00:12:03.696Z,100606.59
2023-05-12T00:14:30.227Z,100599.50
2023-05-12T00:16:56.877Z,100614.59
2023-05-12T00:19:23.757Z,100614.56
2023-05-12T00:21:50.299Z,100612.81
2023-05-12T00:24:16.869Z,100611.03
2023-05-12T00:26:43.446Z,100611.91
2023-05-12T00:29:10.046Z,100621.69
2023-05-12T00:31:36.616Z,100619.91
2023-05-12T00:34:03.541Z,100626.97
2023-05-12T00:36:30.164Z,100627.00
2023-05-12T00:38:58.849Z,100619.91
2023-05-12T00:41:25.819Z,100623.44
2023-05-12T00:43:52.453Z,100623.44
2023-05-12T00:46:19.636Z,100633.22
2023-05-12T00:48:46.582Z,100612.81
2023-05-12T00:51:15.668Z,100613.72
2023-05-12T00:53:49.783Z,100612.81
2023-05-12T00:56:19.118Z,100611.94
2023-05-12T00:58:46.780Z,100615.47
2023-05-12T01:01:14.277Z,100617.28
2023-05-12T01:03:41.119Z,100620.81
2023-05-12T01:06:25.372Z,100617.25
2023-05-12T01:08:52.373Z,100627.00
2023-05-12T01:11:19.376Z,100627.00
2023-05-12T01:13:45.936Z,100629.69
2023-05-12T01:16:14.942Z,100635.88
2023-05-12T01:18:49.499Z,100630.56
2023-05-12T01:21:17.964Z,100644.72
2023-05-12T01:23:49.439Z,100636.75
2023-05-12T01:26:16.196Z,100650.03
2023-05-12T01:28:43.062Z,100637.63
2023-05-12T01:31:12.513Z,100642.97
2023-05-12T01:33:39.988Z,100645.59
2023-05-12T01:36:06.669Z,100640.31
2023-05-12T01:38:33.820Z,100642.97
2023-05-12T01:41:00.862Z,100650.94
2023-05-12T01:43:27.433Z,100655.34
2023-05-12T01:45:54.005Z,100651.81
2023-05-12T01:48:20.954Z,100657.13
2023-05-12T01:50:47.498Z,100664.22
2023-05-12T01:53:19.055Z,100673.97
2023-05-12T01:55:45.496Z,100671.31
2023-05-12T01:58:13.102Z,100673.09
2023-05-12T02:00:39.678Z,100681.94
2023-05-12T02:03:11.845Z,100681.94
2023-05-12T02:05:38.813Z,100681.94
2023-05-12T02:08:05.353Z,100689.03
2023-05-12T02:10:31.935Z,100684.63
2023-05-12T02:12:58.713Z,100685.50
2023-05-12T02:15:26.496Z,100681.94
2023-05-12T02:17:55.290Z,100689.03
2023-05-12T02:20:23.283Z,100698.81
2023-05-12T02:22:49.918Z,100685.47
2023-05-12T02:25:16.520Z,100691.69
2023-05-12T02:27:45.002Z,100694.34
2023-05-12T02:30:12.066Z,100690.81
2023-05-12T02:32:38.605Z,100691.69
2023-05-12T02:35:07.502Z,100681.94
2023-05-12T02:37:36.199Z,100690.81
2023-05-12T02:40:02.864Z,100687.22
2023-05-12T02:42:34.883Z,100689.00
2023-05-12T02:45:02.063Z,100675.69
2023-05-12T02:47:31.450Z,100665.94
2023-05-12T02:49:58.128Z,100657.06
2023-05-12T02:52:26.437Z,100655.28
2023-05-12T03:00:59.818Z,100676.44
2023-05-12T03:03:30.043Z,100688.75
2023-05-12T03:05:56.771Z,100689.56
2023-05-12T03:08:23.320Z,100685.13
2023-05-12T03:10:50.086Z,100683.31
2023-05-12T03:13:16.606Z,100686.81
2023-05-12T03:15:43.193Z,100688.56
2023-05-12T03:18:10.075Z,100685.00
2023-05-12T03:20:36.715Z,100685.84
2023-05-12T03:23:04.920Z,100695.56
2023-05-12T03:25:31.623Z,100689.41
2023-05-12T03:28:00.323Z,100678.78
2023-05-12T03:30:26.962Z,100694.69
2023-05-12T03:32:53.564Z,100692.00
2023-05-12T03:35:20.394Z,100692.91
2023-05-12T03:37:47.112Z,100689.41
2023-05-12T03:40:18.721Z,100700.88
2023-05-12T03:42:46.625Z,100688.50
2023-05-12T03:45:13.687Z,100698.22
2023-05-12T03:47:40.816Z,100701.75
2023-05-12T03:50:08.506Z,100703.50
2023-05-12T03:52:37.193Z,100708.81
2023-05-12T03:55:06.181Z,100697.31
2023-05-12T03:57:34.379Z,100710.56
2023-05-12T04:00:01.014Z,100708.81
2023-05-12T04:02:28.240Z,100707.06
2023-05-12T04:04:54.876Z,100703.56
2023-05-12T04:07:21.613Z,100707.13
2023-05-12T04:09:48.077Z,100716.00
2023-05-12T04:12:14.575Z,100716.00
2023-05-12T04:14:43.076Z,100721.28
2023-05-12T04:17:10.996Z,100711.56
2023-05-12T04:19:37.453Z,100711.59
2023-05-12T04:22:04.078Z,100723.06
2023-05-12T04:24:31.266Z,100712.50
2023-05-12T04:26:58.050Z,100718.66
2023-05-12T04:29:24.798Z,100730.19
2023-05-12T04:31:51.396Z,100721.38
2023-05-12T04:34:17.906Z,100729.34
2023-05-12T04:36:44.375Z,100729.34
2023-05-12T04:39:11.078Z,100727.56
2023-05-12T04:41:37.517Z,100732.00
2023-05-12T04:44:04.178Z,100737.34
2023-05-12T04:46:30.939Z,100739.13
2023-05-12T04:48:57.474Z,100732.94
2023-05-12T04:51:24.523Z,100739.16
2023-05-12T04:53:51.106Z,100743.69
2023-05-12T04:56:18.577Z,100742.84
2023-05-12T04:58:45.142Z,100738.44
2023-05-12T05:01:12.515Z,100736.72
2023-05-12T05:03:40.590Z,100736.75
2023-05-12T05:06:07.704Z,100746.53
2023-05-12T05:08:34.337Z,100742.13
2023-05-12T05:11:00.843Z,100743.91
2023-05-12T05:13:28.737Z,100751.03
2023-05-12T05:15:55.531Z,100750.16
2023-05-12T05:18:24.576Z,100751.94
2023-05-12T05:20:57.934Z,100757.28
2023-05-12T05:23:26.236Z,100751.06
2023-05-12T05:25:53.363Z,100752.88
2023-05-12T05:28:19.897Z,100761.72
2023-05-12T05:30:46.450Z,100760.84
2023-05-12T05:33:14.109Z,100760.88
2023-05-12T05:35:41.884Z,100762.66
2023-05-12T05:38:09.712Z,100766.25
2023-05-12T05:40:49.249Z,100770.66
2023-05-12T05:43:18.445Z,100770.69
2023-05-12T05:45:45.115Z,100772.50
2023-05-12T05:48:11.793Z,100784.00
2023-05-12T05:50:38.287Z,100787.56
2023-05-12T05:53:05.234Z,100773.41
2023-05-12T05:55:31.777Z,100777.84
2023-05-12T05:57:58.468Z,100775.16
2023-05-12T06:00:25.491Z,100782.22
2023-05-12T06:02:52.359Z,100786.69
2023-05-12T06:05:20.983Z,100791.13
2023-05-12T06:07:48.202Z,100794.66
2023-05-12T06:10:14.798Z,100792.84
2023-05-12T06:12:41.536Z,100795.53
2023-05-12T06:15:08.583Z,100801.75
2023-05-12T06:17:35.226Z,100801.69
2023-05-12T06:20:03.045Z,100803.47
2023-05-12T06:22:34.138Z,100807.88
2023-05-12T06:25:04.268Z,100806.13
2023-05-12T06:27:39.272Z,100803.41
2023-05-12T06:30:07.782Z,100811.34
2023-05-12T06:32:35.072Z,100809.56
2023-05-12T06:35:01.977Z,100813.94
2023-05-12T06:37:28.577Z,100813.94
2023-05-12T06:39:56.594Z,100828.13
2023-05-12T06:42:27.770Z,100820.09
2023-05-12T06:44:59.104Z,100826.25
2023-05-12T06:47:25.958Z,100821.78
2023-05-12T06:49:52.871Z,100826.16
2023-05-12T06:52:21.234Z,100827.88
2023-05-12T06:54:47.777Z,100832.28
2023-05-12T06:57:14.547Z,100835.84
2023-05-12T06:59:41.206Z,100832.22
2023-05-12T07:02:07.809Z,100829.47
2023-05-12T07:04:36.007Z,100828.50
2023-05-12T07:07:02.530Z,100829.28
2023-05-12T07:09:29.375Z,100828.38
2023-05-12T07:11:56.189Z,100835.44
2023-05-12T07:14:23.043Z,100828.31
2023-05-12T07:16:49.907Z,100827.38
2023-05-12T07:19:18.571Z,100838.00
2023-05-12T07:21:46.201Z,100829.88
2023-05-12T07:24:12.874Z,100827.09
2023-05-12T07:26:39.427Z,100830.59
2023-05-12T07:29:07.337Z,100835.91
2023-05-12T07:31:34.564Z,100827.81
2023-05-12T07:34:01.299Z,100831.31
2023-05-12T07:36:30.677Z,100821.47
2023-05-12T07:38:59.130Z,100828.59
2023-05-12T07:41:26.164Z,100820.53
2023-05-12T07:43:52.758Z,100828.47
2023-05-12T07:46:20.352Z,100827.56
2023-05-12T07:48:49.320Z,100830.22
2023-05-12T07:51:19.185Z,100829.25
2023-05-12T07:53:51.108Z,100825.59
2023-05-12T07:56:19.174Z,100829.91
2023-05-12T07:58:47.422Z,100828.00
2023-05-12T08:01:15.152Z,100828.91
2023-05-12T08:03:41.774Z,100831.63
2023-05-12T08:06:08.512Z,100829.88
2023-05-12T08:08:36.717Z,100829.00
2023-05-12T08:11:04.779Z,100826.31
2023-05-12T08:13:31.247Z,100832.56
2023-05-12T08:15:57.762Z,100838.75
2023-05-12T08:18:24.543Z,100826.25
2023-05-12T08:20:54.193Z,100830.63
2023-05-12T08:23:21.099Z,100837.69
2023-05-12T08:25:48.650Z,100827.81
2023-05-12T08:28:15.509Z,100834.97
2023-05-12T08:30:43.079Z,100837.59
2023-05-12T08:33:09.649Z,100847.38
2023-05-12T08:35:36.258Z,100840.22
2023-05-12T08:38:02.864Z,100841.97
2023-05-12T08:40:31.674Z,100836.50
2023-05-12T08:43:24.438Z,100840.72
2023-05-12T08:45:51.133Z,100839.47
2023-05-12T08:48:19.946Z,100847.13
2023-05-12T08:50:49.937Z,100844.03
2023-05-12T08:53:18.844Z,100847.28
2023-05-12T08:56:01.108Z,100842.47
2023-05-12T08:58:41.560Z,100842.88
2023-05-12T09:01:11.064Z,100845.41
2023-05-12T09:03:37.808Z,100835.81
2023-05-12T09:06:06.137Z,100846.66
2023-05-12T09:08:34.846Z,100842.97
2023-05-12T09:11:01.959Z,100849.38
2023-05-12T09:13:32.469Z,100849.53
2023-05-12T09:16:01.798Z,100856.94
2023-05-12T09:18:45.866Z,100854.41
2023-05-12T09:21:12.758Z,100866.25
2023-05-12T09:23:39.422Z,100860.09
2023-05-12T09:26:05.934Z,100860.25
2023-05-12T09:28:37.463Z,100853.19
2023-05-12T09:31:15.518Z,100862.13
2023-05-12T09:33:42.050Z,100861.34
2023-05-12T09:36:08.690Z,100855.09
2023-05-12T09:38:35.645Z,100858.72
2023-05-12T09:41:02.134Z,100856.88
2023-05-12T09:43:28.608Z,100851.53
2023-05-12T09:45:55.706Z,100862.19
2023-05-12T09:48:22.273Z,100861.19
2023-05-12T09:50:52.779Z,100857.56
2023-05-12T09:53:20.440Z,100862.88
2023-05-12T09:55:48.542Z,100869.91
2023-05-12T09:58:17.119Z,100865.38
2023-05-12T10:01:12.712Z,100862.63
2023-05-12T10:03:33.478Z,100861.63
2023-05-12T10:06:02.998Z,100859.75
2023-05-12T10:08:46.606Z,100859.69
2023-05-12T10:11:14.396Z,100862.28
2023-05-12T10:13:41.695Z,100853.31
2023-05-12T10:16:09.335Z,100850.53
2023-05-12T10:18:36.111Z,100853.09
2023-05-12T10:21:03.563Z,100848.50
2023-05-12T10:23:31.081Z,100842.09
2023-05-12T10:26:01.930Z,100849.09
2023-05-12T10:28:29.149Z,100848.03
2023-05-12T10:30:57.676Z,100849.53
2023-05-12T10:33:24.820Z,100846.63
2023-05-12T10:35:52.936Z,100843.75
2023-05-12T10:38:22.561Z,100840.91
2023-05-12T10:40:59.752Z,100841.47
2023-05-12T10:43:39.192Z,100833.88
2023-05-12T10:46:19.211Z,100841.09
2023-05-12T10:49:00.951Z,100834.03
2023-05-12T10:51:30.214Z,100835.88
2023-05-12T10:54:02.203Z,100834.19
2023-05-12T10:56:31.658Z,100835.25
2023-05-12T10:59:19.733Z,100845.09
2023-05-12T11:02:17.232Z,100838.88
2023-05-12T11:04:56.332Z,100828.97
2023-05-12T11:07:28.654Z,100833.28
2023-05-12T11:10:01.416Z,100832.03
2023-05-12T11:12:32.454Z,100826.97
2023-05-12T11:15:00.736Z,100822.41
2023-05-12T11:17:28.935Z,100805.28
2023-05-12T11:19:55.736Z,100811.91
2023-05-12T11:22:23.681Z,100817.09
2023-05-12T11:24:51.333Z,100820.63
2023-05-12T11:27:20.424Z,100815.13
2023-05-12T11:29:59.437Z,100805.97
2023-05-12T11:32:26.293Z,100815.31
2023-05-12T11:34:54.793Z,100821.59
2023-05-12T11:37:22.402Z,100822.50
2023-05-12T11:39:49.131Z,100814.66
2023-05-12T11:42:19.800Z,100820.31
2023-05-12T11:44:50.488Z,100826.22
2023-05-12T11:47:19.251Z,100826.16
2023-05-12T11:49:58.678Z,100824.44
2023-05-12T11:52:25.104Z,100841.13
2023-05-12T11:55:00.143Z,100836.09
2023-05-12T11:57:34.195Z,100838.16
2023-05-12T12:00:04.980Z,100828.69
2023-05-12T12:02:36.784Z,100826.31
2023-05-12T12:05:03.595Z,100824.75
2023-05-12T12:07:31.637Z,100830.97
2023-05-12T12:09:59.234Z,100830.00
2023-05-12T12:12:25.758Z,100838.09
2023-05-12T12:14:52.436Z,100835.63
2023-05-12T12:17:18.895Z,100830.69
2023-05-12T12:19:47.803Z,100831.09
2023-05-12T12:22:14.393Z,100832.59
2023-05-12T12:24:40.960Z,100832.91
2023-05-12T12:27:08.750Z,100842.09
2023-05-12T12:29:35.472Z,100832.19
2023-05-12T12:32:01.931Z,100838.22
2023-05-12T12:34:28.386Z,100841.41
2023-05-12T12:36:56.960Z,100840.28
2023-05-12T12:39:23.460Z,100832.16
2023-05-12T12:41:50.677Z,100847.44
2023-05-12T12:44:17.783Z,100842.47
2023-05-12T12:46:45.813Z,100842.00
2023-05-12T12:49:12.539Z,100843.25
2023-05-12T12:51:46.342Z,100843.44
2023-05-12T12:54:14.791Z,100839.09
2023-05-12T12:56:41.795Z,100841.66
2023-05-12T12:59:08.399Z,100837.75
2023-05-12T13:01:35.100Z,100840.94
2023-05-12T13:04:04.220Z,100842.53
2023-05-12T13:06:30.706Z,100837.66
2023-05-12T13:08:57.160Z,100836.19
2023-05-12T13:11:23.672Z,100833.69
2023-05-12T13:13:50.533Z,100848.22
2023-05-12T13:16:17.354Z,100837.59
2023-05-12T13:18:44.036Z,100834.66
2023-05-12T13:21:10.643Z,100830.63
2023-05-12T13:23:37.313Z,100821.09
2023-05-12T13:26:03.902Z,100842.47
2023-05-12T13:28:30.615Z,100832.81
2023-05-12T13:30:57.592Z,100835.84
2023-05-12T13:33:24.227Z,100834.59
2023-05-12T13:35:50.804Z,100829.63
2023-05-12T13:38:20.780Z,100829.03
2023-05-12T13:40:47.279Z,100819.50
2023-05-12T13:43:14.038Z,100829.47
2023-05-12T13:45:40.684Z,100825.16
2023-05-12T13:48:08.306Z,100823.78
2023-05-12T13:50:36.291Z,100821.63
2023-05-12T13:53:02.778Z,100817.84
2023-05-12T13:55:29.338Z,100818.75
2023-05-12T13:57:55.773Z,100823.72
2023-05-12T14:00:24.750Z,100826.50
2023-05-12T14:02:51.469Z,100821.31
2023-05-12T14:05:18.162Z,100819.88
2023-05-12T14:07:44.803Z,100823.84
2023-05-12T14:10:11.468Z,100812.25
2023-05-12T14:12:38.072Z,100809.84
2023-05-12T14:15:21.844Z,100812.66
2023-05-12T14:17:51.834Z,100804.75
2023-05-12T14:20:18.334Z,100816.75
2023-05-12T14:22:44.812Z,100819.31
2023-05-12T14:25:11.430Z,100826.53
2023-05-12T14:27:38.091Z,100826.34
2023-05-12T14:30:06.145Z,100824.94
2023-05-12T14:32:34.228Z,100830.41
2023-05-12T14:35:00.906Z,100814.88
2023-05-12T14:37:28.258Z,100819.84
2023-05-12T14:39:56.940Z,100809.16
2023-05-12T14:42:23.773Z,100822.19
2023-05-12T14:44:50.504Z,100813.91
2023-05-12T14:47:17.277Z,100815.91
2023-05-12T14:49:45.448Z,100823.28
2023-05-12T14:52:12.268Z,100815.66
2023-05-12T14:54:38.724Z,100818.44
2023-05-12T14:57:05.854Z,100820.09
2023-05-12T14:59:32.805Z,100811.59
2023-05-12T15:01:59.351Z,100810.22
2023-05-12T15:04:27.111Z,100810.22
2023-05-12T15:06:53.575Z,100812.09
2023-05-12T15:09:20.050Z,100811.63
2023-05-12T15:11:46.640Z,100811.09
2023-05-12T15:14:13.203Z,100810.38
2023-05-12T15:16:40.052Z,100808.53
2023-05-12T15:19:06.927Z,100806.69
2023-05-12T15:21:34.816Z,100812.72
2023-05-12T15:24:02.146Z,100809.53
2023-05-12T15:26:33.631Z,100806.13
2023-05-12T15:29:01.669Z,100822.44
2023-05-12T15:31:29.634Z,100822.38
2023-05-12T15:33:57.225Z,100825.16
2023-05-12T15:36:24.808Z,100824.38
2023-05-12T15:38:51.347Z,100830.63
2023-05-12T15:41:17.914Z,100831.25
2023-05-12T15:43:44.508Z,100830.34
2023-05-12T15:46:11.692Z,100833.44
2023-05-12T15:48:39.430Z,100838.00
2023-05-12T15:51:06.807Z,100831.50
2023-05-12T15:53:33.534Z,100832.66
2023-05-12T15:56:01.222Z,100842.13
2023-05-12T15:58:28.358Z,100838.91
2023-05-12T16:00:55.149Z,100834.19
2023-05-12T16:03:21.853Z,100842.16
2023-05-12T16:05:48.880Z,100837.97
2023-05-12T16:08:15.397Z,100837.78
2023-05-12T16:10:41.815Z,100838.06
2023-05-12T16:13:08.760Z,100847.63
2023-05-12T16:15:35.785Z,100842.84
2023-05-12T16:18:02.586Z,100844.63
2023-05-12T16:20:29.840Z,100839.59
2023-05-12T16:22:56.991Z,100841.06
2023-05-12T16:25:23.857Z,100848.53
2023-05-12T16:27:50.702Z,100845.94
2023-05-12T16:30:19.417Z,100833.25
2023-05-12T16:32:47.489Z,100836.91
2023-05-12T16:35:14.464Z,100834.75
2023-05-12T16:37:41.406Z,100830.47
2023-05-12T16:40:09.661Z,100831.97
2023-05-12T16:42:36.623Z,100824.31
2023-05-12T16:45:03.574Z,100821.25
2023-05-12T16:47:30.104Z,100827.34
2023-05-12T16:49:58.202Z,100832.69
2023-05-12T16:52:25.975Z,100828.53
2023-05-12T16:54:53.162Z,100832.66
2023-05-12T16:57:20.228Z,100832.69
2023-05-12T16:59:48.361Z,100838.19
2023-05-12T17:02:15.619Z,100835.88
2023-05-12T17:04:42.932Z,100829.06
2023-05-12T17:07:09.697Z,100827.78
2023-05-12T17:09:44.058Z,100836.06
2023-05-12T17:12:10.998Z,100831.09
2023-05-12T17:14:38.155Z,100830.66
2023-05-12T17:17:06.260Z,100835.19
2023-05-12T17:19:35.633Z,100841.16
2023-05-12T17:22:02.333Z,100836.66
2023-05-12T17:24:28.816Z,100848.28
2023-05-12T17:26:55.429Z,100845.25
2023-05-12T17:29:21.949Z,100847.81
2023-05-12T17:31:48.594Z,100844.50
2023-05-12T17:34:15.367Z,100848.69
2023-05-12T17:36:42.078Z,100851.34
2023-05-12T17:39:08.717Z,100849.66
2023-05-12T17:41:35.207Z,100851.38
2023-05-12T17:44:01.652Z,100856.84
2023-05-12T17:46:28.559Z,100850.72
2023-05-12T17:48:55.085Z,100847.25
2023-05-12T17:51:22.098Z,100850.28
2023-05-12T17:53:48.552Z,100850.72
2023-05-12T17:56:15.142Z,100855.31
2023-05-12T17:58:42.068Z,100857.09
2023-05-12T18:01:08.745Z,100854.06
2023-05-12T18:03:35.581Z,100859.66
2023-05-12T18:06:02.327Z,100857.94
2023-05-12T18:08:28.827Z,100855.47
2023-05-12T18:10:55.345Z,100866.72
2023-05-12T18:13:21.977Z,100861.78
2023-05-12T18:15:49.275Z,100865.22
2023-05-12T18:18:15.923Z,100867.72
2023-05-12T18:20:42.584Z,100862.66
2023-05-12T18:23:09.125Z,100869.84
2023-05-12T18:25:35.616Z,100874.72
2023-05-12T18:28:02.173Z,100870.41
2023-05-12T18:30:28.838Z,100869.41
2023-05-12T18:32:55.764Z,100872.31
2023-05-12T18:35:22.587Z,100870.19
2023-05-12T18:37:49.866Z,100877.50
2023-05-12T18:40:17.017Z,100879.19
2023-05-12T18:42:43.799Z,100883.44
2023-05-12T18:45:10.894Z,100882.94
2023-05-12T18:47:37.680Z,100880.66
2023-05-12T18:50:04.625Z,100889.78
2023-05-12T18:52:31.264Z,100892.53
2023-05-12T18:54:57.853Z,100888.84
2023-05-12T18:57:24.401Z,100892.34
2023-05-12T18:59:51.130Z,100889.44
2023-05-12T19:02:17.724Z,100890.09
2023-05-12T19:04:44.299Z,100896.94
2023-05-12T19:07:15.152Z,100894.91
2023-05-12T19:09:42.521Z,100900.88
2023-05-12T19:12:11.170Z,100897.75
2023-05-12T19:14:39.281Z,100905.38
2023-05-12T19:17:06.420Z,100908.50
2023-05-12T19:19:32.964Z,100904.44
2023-05-12T19:21:59.567Z,100911.13
2023-05-12T19:24:26.896Z,100928.47
2023-05-12T19:26:53.658Z,100910.94
2023-05-12T19:29:20.279Z,100922.00
2023-05-12T19:31:47.254Z,100927.59
2023-05-12T19:34:13.788Z,100926.97
2023-05-12T19:36:40.231Z,100921.84
2023-05-12T19:39:06.701Z,100924.75
2023-05-12T19:41:33.161Z,100925.03
2023-05-12T19:43:59.669Z,100927.03
2023-05-12T19:46:26.519Z,100924.56
2023-05-12T19:48:53.623Z,100931.00
2023-05-12T19:51:20.208Z,100931.16
2023-05-12T19:53:46.816Z,100931.31
2023-05-12T19:56:13.382Z,100936.81
2023-05-12T19:58:39.839Z,100936.03
2023-05-12T20:01:06.602Z,100941.50
2023-05-12T20:03:33.290Z,100936.28
2023-05-12T20:05:59.796Z,100940.84
2023-05-12T20:08:26.283Z,100942.72
2023-05-12T20:10:52.805Z,100938.41
2023-05-12T20:13:19.300Z,100943.78
2023-05-12T20:15:45.804Z,100943.91
2023-05-12T20:18:15.409Z,100946.66
2023-05-12T20:20:43.041Z,100949.38
2023-05-12T20:23:09.809Z,100948.53
2023-05-12T20:25:36.618Z,100948.63
2023-05-12T20:28:03.195Z,100949.59
2023-05-12T20:30:29.757Z,100956.72
2023-05-12T20:32:56.441Z,100963.03
2023-05-12T20:35:23.363Z,100955.06
2023-05-12T20:37:50.682Z,100955.09
2023-05-12T20:40:17.340Z,100954.25
2023-05-12T20:42:46.137Z,100951.59
2023-05-12T20:45:13.812Z,100960.50
2023-05-12T20:47:40.436Z,100954.31
2023-05-12T20:50:08.911Z,100964.13
2023-05-12T20:52:40.513Z,100961.47
2023-05-12T20:55:07.681Z,100954.38
2023-05-12T20:57:34.297Z,100969.50
2023-05-12T21:00:01.692Z,100962.41
2023-05-12T21:02:29.282Z,100961.56
2023-05-12T21:04:56.295Z,100967.78
2023-05-12T21:07:22.933Z,100966.91
2023-05-12T21:09:49.736Z,100961.59
2023-05-12T21:12:16.180Z,100961.59
2023-05-12T21:14:44.006Z,100964.28
2023-05-12T21:17:12.079Z,100966.06
2023-05-12T21:19:39.708Z,100972.28
2023-05-12T21:22:07.897Z,100968.75
2023-05-12T21:24:34.577Z,100972.31
2023-05-12T21:27:06.198Z,100964.28
2023-05-12T21:29:33.880Z,100964.31
2023-05-12T21:32:01.296Z,100969.59
2023-05-12T21:34:28.126Z,100973.16
2023-05-12T21:36:54.943Z,100972.25
2023-05-12T21:39:21.946Z,100979.38
2023-05-12T21:41:48.654Z,100969.59
2023-05-12T21:44:16.207Z,100977.63
2023-05-12T21:46:42.935Z,100982.91
2023-05-12T21:49:09.807Z,100984.69
2023-05-12T21:51:36.313Z,100982.94
2023-05-12T21:54:03.236Z,100982.03
2023-05-12T21:56:29.722Z,100981.16
2023-05-12T21:58:56.288Z,100984.69
2023-05-12T22:01:23.072Z,100982.03
2023-05-12T22:03:49.867Z,100979.34
2023-05-12T22:06:16.642Z,100980.25
2023-05-12T22:08:43.461Z,100974.91
2023-05-12T22:11:10.019Z,100976.69
2023-05-12T22:13:36.769Z,100974.91
2023-05-12T22:16:03.922Z,100981.09
2023-05-12T22:18:30.661Z,100978.44
2023-05-12T22:20:57.156Z,100978.41
2023-05-12T22:23:23.819Z,100981.94
2023-05-12T22:25:50.623Z,100982.81
2023-05-12T22:28:17.932Z,100987.25
2023-05-12T22:30:44.530Z,100983.69
2023-05-12T22:33:11.271Z,100982.78
2023-05-12T22:35:38.152Z,100983.66
2023-05-12T22:38:04.729Z,100984.53
2023-05-12T22:40:32.798Z,100988.03
2023-05-12T22:42:59.465Z,100980.91
2023-05-12T22:45:26.083Z,100982.66
2023-05-12T22:47:52.814Z,100987.94
2023-05-12T22:50:20.855Z,100993.25
2023-05-12T22:52:47.653Z,100999.41
2023-05-12T22:55:14.236Z,100984.31
2023-05-12T22:57:43.585Z,100999.38
2023-05-12T23:00:12.103Z,100991.38
2023-05-12T23:02:38.595Z,100989.59
2023-05-12T23:05:05.574Z,100996.66
2023-05-12T23:07:32.099Z,100994.00
2023-05-12T23:09:58.847Z,100987.78
2023-05-12T23:12:25.777Z,100993.09
2023-05-12T23:14:52.561Z,100999.31
2023-05-12T23:17:20.712Z,100991.34
2023-05-12T23:19:47.350Z,100991.34
2023-05-12T23:22:13.861Z,100987.81
2023-05-12T23:24:40.640Z,100987.78
2023-05-12T23:27:07.182Z,100987.78
2023-05-12T23:29:34.449Z,100989.53
2023-05-12T23:32:00.996Z,100989.53
2023-05-12T23:34:27.485Z,100990.38
2023-05-12T23:36:54.252Z,100985.91
2023-05-12T23:39:20.913Z,100992.06
2023-05-12T23:41:47.464Z,100987.59
2023-05-12T23:44:14.117Z,100981.38
2023-05-12T23:46:40.813Z,100982.22
2023-05-12T23:49:07.518Z,100983.06
2023-05-12T23:51:34.366Z,100976.84
2023-05-12T23:54:01.020Z,100980.34
2023-05-12T23:56:27.535Z,100974.09
2023-05-12T23:58:55.275Z,100972.28
